Data for 04/29/2007

Time Sea-Level Adjusted Pressure Absolute Pressure Temperature Relative Humidity Dew Point   
(mb) (inHg) (mb) (inHg) (C) (F) (%) (C) (F)
00:05 1019 30.09 848 25.04 14.9 58.8 36 0.2 32.4
00:10 1019 30.09 848 25.04 14.4 58 41 1.3 34.3
00:15 1019 30.09 848 25.04 13.6 56.4 42 1 33.7
00:20 1019 30.09 848 25.04 13.4 56.1 42 1 33.7
00:25 1019 30.09 848 25.04 13.2 55.7 43 1.1 33.9
00:30 1019 30.09 848 25.04 13.1 55.6 44 1.1 34.1
00:35 1019 30.09 848 25.04 13.1 55.5 44 1.3 34.3
00:40 1019 30.09 848 25.04 12.8 55.1 45 1.3 34.4
00:45 1019 30.09 848 25.04 12.6 54.6 45 1.1 34
00:50 1019 30.09 848 25.04 12.6 54.6 45 1.1 34.1
00:55 1019 30.09 848 25.04 12.5 54.5 46 1.2 34.2
01:00 1019 30.09 849 25.07 12.5 54.5 46 1.3 34.3
01:05 1019 30.09 849 25.07 12.4 54.2 46 1.2 34.1
01:10 1019 30.09 849 25.07 12.2 53.9 48 1.5 34.7
01:15 1019 30.09 849 25.07 11.7 53 49 1.4 34.6
01:20 1019 30.09 849 25.07 11.7 53.1 48 1.2 34.1
01:25 1019 30.09 849 25.07 11.8 53.2 49 1.5 34.6
01:30 1020 30.12 849 25.07 11.7 53.1 49 1.3 34.3
01:35 1020 30.12 849 25.07 11.6 52.9 50 1.5 34.7
01:40 1019 30.09 849 25.07 11.2 52.2 51 1.6 34.9
01:45 1020 30.12 849 25.07 10.9 51.7 52 1.6 34.9
01:50 1019 30.09 849 25.07 10.8 51.5 53 1.6 34.9
01:55 1019 30.09 849 25.07 10.8 51.4 52 1.3 34.4
02:00 1019 30.09 849 25.07 10.9 51.6 51 1.3 34.3
02:05 1019 30.09 849 25.07 10.9 51.7 50 1 33.8
02:10 1019 30.09 849 25.07 11.1 51.9 50 1 33.8
02:15 1020 30.12 849 25.07 11.3 52.3 50 1.2 34.2
02:20 1019 30.09 849 25.07 11.3 52.4 50 1.3 34.3
02:25 1019 30.09 849 25.07 11.5 52.7 49 1.2 34.1
02:30 1019 30.09 849 25.07 11.5 52.7 49 1.2 34.2
02:35 1019 30.09 849 25.07 11.4 52.4 49 1.2 34.2
02:40 1019 30.09 849 25.07 11.2 52.2 50 1.1 34.1
02:45 1019 30.09 849 25.07 11.3 52.4 49 1.1 34
02:50 1019 30.09 849 25.07 11.2 52.1 50 1.2 34.2
02:55 1020 30.12 849 25.07 11 51.9 50 1 33.7
03:00 1020 30.12 849 25.07 11.3 52.3 49 1 33.8
03:05 1020 30.12 849 25.07 11.3 52.4 49 1.1 33.9
03:10 1020 30.12 849 25.07 11.3 52.3 48 0.8 33.4
03:15 1020 30.12 849 25.07 11.3 52.3 48 0.7 33.2
03:20 1020 30.12 849 25.07 11.1 52 49 0.9 33.7
03:25 1020 30.12 849 25.07 10.7 51.3 50 0.8 33.4
03:30 1020 30.12 849 25.07 10.3 50.5 52 0.9 33.6
03:35 1020 30.12 849 25.07 10.1 50.1 53 0.9 33.5
03:40 1020 30.12 849 25.07 9.9 49.8 53 0.8 33.4
03:45 1020 30.12 849 25.07 9.6 49.3 54 0.8 33.4
03:50 1020 30.12 849 25.07 9.4 49 55 0.8 33.4
03:55 1020 30.12 849 25.07 9.5 49.1 54 0.6 33.1
04:00 1020 30.12 849 25.07 9.6 49.3 54 0.7 33.2
04:05 1020 30.12 849 25.07 9.5 49 55 0.8 33.4
04:10 1019 30.09 849 25.07 9.7 49.4 52 0.4 32.7
04:15 1020 30.12 849 25.07 9.8 49.6 53 0.6 33.1
04:20 1019 30.09 849 25.07 9.8 49.6 53 0.5 33
04:25 1019 30.09 849 25.07 9.9 49.8 52 0.4 32.8
04:30 1019 30.09 849 25.07 9.9 49.8 52 0.6 33.1
04:35 1019 30.09 849 25.07 9.8 49.7 51 0.2 32.4
04:40 1019 30.09 848 25.04 10.1 50.1 51 0.5 32.9
04:45 1019 30.09 848 25.04 10 49.9 52 0.6 33.1
04:50 1019 30.09 849 25.07 9.7 49.4 54 0.8 33.4
04:55 1019 30.09 849 25.07 9.5 49 55 0.9 33.6
05:00 1019 30.09 849 25.07 9 48.2 57 0.9 33.7
05:05 1019 30.09 849 25.07 8.8 47.8 57 0.8 33.5
05:10 1019 30.09 849 25.07 8.9 48.1 56 0.7 33.3
05:15 1019 30.09 849 25.07 9.3 48.7 55 0.6 33.1
05:20 1019 30.09 849 25.07 9.4 49 54 0.7 33.3
05:25 1019 30.09 848 25.04 9.3 48.7 55 0.7 33.3
05:30 1019 30.09 848 25.04 9.4 48.9 55 0.7 33.3
05:35 1019 30.09 848 25.04 9.4 49 54 0.6 33.1
05:40 1019 30.09 848 25.04 9.6 49.3 53 0.5 32.9
05:45 1019 30.09 848 25.04 9.8 49.7 52 0.5 32.9
05:50 1019 30.09 848 25.04 9.7 49.5 52 0.5 32.9
05:55 1019 30.09 848 25.04 9.3 48.7 55 0.7 33.2
06:00 1019 30.09 848 25.04 9.2 48.6 54 0.4 32.7
06:05 1019 30.09 848 25.04 8.5 47.4 59 1.1 34
06:10 1019 30.09 848 25.04 8.1 46.6 59 0.6 33
06:15 1019 30.09 848 25.04 8.2 46.7 60 0.8 33.5
06:20 1019 30.09 848 25.04 7.7 45.9 62 0.9 33.6
06:25 1019 30.09 848 25.04 7.6 45.8 61 0.6 33
06:30 1019 30.09 848 25.04 8.1 46.5 59 0.5 32.9
06:35 1019 30.09 848 25.04 8.2 46.8 59 0.6 33.1
06:40 1019 30.09 848 25.04 8.4 47.2 58 0.7 33.3
06:45 1019 30.09 848 25.04 8.6 47.4 58 0.7 33.3
06:50 1019 30.09 848 25.04 8.7 47.7 58 0.9 33.6
06:55 1019 30.09 848 25.04 8.6 47.6 58 1 33.7
07:00 1019 30.09 848 25.04 8.6 47.6 58 0.9 33.6
07:05 1019 30.09 848 25.04 8.6 47.5 59 1 33.8
07:10 1019 30.09 848 25.04 9 48.1 55 0.4 32.7
07:15 1019 30.09 848 25.04 9.5 49 55 0.9 33.6
07:20 1019 30.09 848 25.04 9.6 49.2 54 0.8 33.5
07:25 1019 30.09 848 25.04 9.5 49.1 55 1 33.7
07:30 1019 30.09 848 25.04 9.8 49.6 54 1 33.8
07:35 1019 30.09 848 25.04 9.8 49.6 56 1.4 34.5
07:40 1019 30.09 848 25.04 9.9 49.9 55 1.4 34.4
07:45 1019 30.09 848 25.04 10 50 54 1.3 34.3
07:50 1019 30.09 848 25.04 10 50 54 1.2 34.2
07:55 1019 30.09 848 25.04 10 50.1 54 1.2 34.2
08:00 1019 30.09 848 25.04 10.3 50.5 53 1.3 34.3
08:05 1019 30.09 848 25.04 10.5 50.9 53 1.3 34.3
08:10 1019 30.09 848 25.04 10.9 51.6 52 1.6 34.9
08:15 1019 30.09 848 25.04 11.1 52 51 1.5 34.7
08:20 1019 30.09 848 25.04 11.6 52.9 50 1.7 35
08:25 1019 30.09 848 25.04 12.3 54.2 48 1.8 35.2
08:30 1019 30.09 848 25.04 12.7 54.8 48 1.9 35.5
08:35 1019 30.09 848 25.04 12.7 54.8 48 1.9 35.4
08:40 1019 30.09 848 25.04 12.7 54.9 47 1.8 35.3
08:45 1019 30.09 848 25.04 12.7 54.9 47 1.7 35
08:50 1019 30.09 848 25.04 13 55.3 47 1.9 35.4
08:55 1019 30.09 848 25.04 13.2 55.8 44 1.3 34.4
09:00 1019 30.09 848 25.04 13.8 56.8 40 0.5 32.9
09:05 1018 30.06 848 25.04 13.9 57 44 2.1 35.7
09:10 1018 30.06 848 25.04 13.5 56.3 46 2.2 36
09:15 1018 30.06 848 25.04 14 57.2 44 2 35.5
09:20 1018 30.06 847 25.01 14 57.3 42 1.3 34.3
09:25 1018 30.06 847 25.01 14.3 57.8 41 1.4 34.6
09:30 1018 30.06 847 25.01 14.9 58.9 38 1 33.8
09:35 1018 30.06 847 25.01 15 59.1 38 1.1 33.9
09:40 1018 30.06 847 25.01 15.2 59.4 37 0.8 33.5
09:45 1018 30.06 847 25.01 16 60.7 35 0.8 33.4
09:50 1018 30.06 847 25.01 16.3 61.4 34 0.7 33.2
09:55 1018 30.06 847 25.01 17 62.6 33 0.9 33.6
10:00 1018 30.06 847 25.01 17.5 63.5 33 1.2 34.1
10:05 1017 30.03 847 25.01 17.8 64 33 1.4 34.5
10:10 1017 30.03 847 25.01 17.9 64.3 33 1.5 34.7
10:15 1017 30.03 847 25.01 18.3 65 33 1.7 35.1
10:20 1017 30.03 846 24.98 18.4 65.2 34 2.3 36.1
10:25 1017 30.03 846 24.98 18.3 64.9 33 2 35.6
10:30 1017 30.03 846 24.98 19.3 66.7 31 1.9 35.5
10:35 1017 30.03 846 24.98 19.9 67.8 31 2.6 36.7
10:40 1017 30.03 846 24.98 19.4 66.9 33 2.7 36.9
10:45 1017 30.03 846 24.98 18.9 66.1 33 2.3 36.1
10:50 1017 30.03 846 24.98 18.8 65.9 33 2.2 35.9
10:55 1017 30.03 846 24.98 19.1 66.3 33 2.8 37
11:00 1017 30.03 846 24.98 18.7 65.6 35 3 37.4
11:05 1017 30.03 846 24.98 18.2 64.7 35 2.7 36.9
11:10 1017 30.03 846 24.98 19.1 66.3 33 2.4 36.3
11:15 1017 30.03 846 24.98 19.2 66.6 34 3 37.4
11:20 1017 30.03 846 24.98 19.2 66.5 34 3.2 37.8
11:25 1016 30 846 24.98 19.5 67 34 3.3 38
11:30 1016 30 846 24.98 19.7 67.4 33 3.2 37.8
11:35 1016 30 846 24.98 19.3 66.7 35 3.6 38.5
11:40 1016 30 845 24.95 19.3 66.8 35 3.7 38.6
11:45 1016 30 845 24.95 19.9 67.8 33 3.4 38.1
11:50 1016 30 845 24.95 18.9 66.1 36 3.9 38.9
11:55 1016 30 845 24.95 18.3 65 39 4.1 39.3
12:00 1016 30 845 24.95 19.2 66.6 35 3.5 38.4
12:05 1016 30 845 24.95 19.4 66.8 34 3.3 37.9
12:10 1016 30 845 24.95 19.6 67.3 36 4.1 39.4
12:15 1016 30 845 24.95 19.8 67.7 34 3.5 38.3
12:20 1016 30 845 24.95 20.1 68.3 33 3.5 38.3
12:25 1016 30 845 24.95 19.4 66.8 36 4.1 39.4
12:30 1016 30 845 24.95 19.5 67.1 36 4.3 39.7
12:35 1015 29.97 845 24.95 19.6 67.2 34 3.4 38.1
12:40 1016 30 845 24.95 20.6 69.1 33 4.1 39.4
12:45 1015 29.97 845 24.95 20.9 69.6 34 4.7 40.5
12:50 1015 29.97 844 24.92 20.4 68.7 33 3.9 39
12:55 1015 29.97 844 24.92 20.4 68.8 34 4 39.3
13:00 1015 29.97 844 24.92 21.1 70 32 3.9 38.9
13:05 1015 29.97 844 24.92 21.7 71.1 31 4.2 39.5
13:10 1015 29.97 844 24.92 20.9 69.5 34 4.5 40.2
13:15 1015 29.97 844 24.92 20.8 69.5 32 3.5 38.3
13:20 1015 29.97 844 24.92 20.6 69 34 4.2 39.5
13:25 1015 29.97 844 24.92 21.3 70.3 31 3.6 38.5
13:30 1014 29.94 844 24.92 21.2 70.2 32 4.2 39.6
13:35 1014 29.94 844 24.92 21.2 70.1 32 4.1 39.3
13:40 1014 29.94 844 24.92 21.6 70.9 32 4.6 40.3
13:45 1014 29.94 843 24.89 22 71.5 31 4.4 40
13:50 1014 29.94 843 24.89 22.3 72.1 31 4.7 40.5
13:55 1014 29.94 843 24.89 22 71.6 31 4.4 39.9
14:00 1014 29.94 843 24.89 22.3 72.1 30 4.3 39.7
14:05 1014 29.94 843 24.89 23.4 74 28 4.2 39.5
14:10 1014 29.94 843 24.89 23 73.5 32 5.5 41.8
14:15 1014 29.94 843 24.89 23 73.4 29 4.4 39.9
14:20 1014 29.94 843 24.89 22.8 73.1 29 4.3 39.7
14:25 1014 29.94 843 24.89 23.4 74.2 28 4.3 39.7
14:30 1014 29.94 843 24.89 23.8 74.8 28 4.4 40
14:35 1013 29.91 843 24.89 22.9 73.2 29 4.1 39.4
14:40 1013 29.91 843 24.89 22.9 73.2 28 3.9 38.9
14:45 1013 29.91 843 24.89 22.7 72.9 28 3.6 38.5
14:50 1013 29.91 843 24.89 23.2 73.7 27 3.5 38.3
14:55 1013 29.91 843 24.89 23.6 74.4 28 4 39.2
15:00 1013 29.91 842 24.86 23.7 74.7 25 2.8 37
15:05 1013 29.91 842 24.86 23.4 74.2 28 3.9 39
15:10 1013 29.91 842 24.86 23.3 73.9 25 2.5 36.5
15:15 1013 29.91 842 24.86 23.5 74.2 27 3.5 38.3
15:20 1013 29.91 842 24.86 23.6 74.4 25 2.9 37.1
15:25 1013 29.91 843 24.89 23.2 73.8 26 2.9 37.2
15:30 1014 29.94 843 24.89 23 73.3 26 2.4 36.4
15:35 1013 29.91 843 24.89 22.8 73 27 2.8 37
15:40 1013 29.91 842 24.86 22.7 72.9 26 2.7 36.8
15:45 1013 29.91 842 24.86 23.1 73.6 25 2 35.5
15:50 1013 29.91 842 24.86 23.9 75 23 1.7 35.1
15:55 1013 29.91 842 24.86 24.4 76 23 2.2 35.9
16:00 1013 29.91 842 24.86 25.1 77.2 20 1.1 34
16:05 1012 29.88 842 24.86 24.8 76.7 20 0.4 32.6
16:10 1012 29.88 842 24.86 24.8 76.7 22 1.6 34.9
16:15 1012 29.88 842 24.86 24.4 75.8 23 1.9 35.4
16:20 1012 29.88 841 24.83 24.5 76.1 21 1 33.9
16:25 1012 29.88 841 24.83 24.4 75.9 20 0.1 32.2
16:30 1012 29.88 841 24.83 25.1 77.2 18 -0.9 30.4
16:35 1012 29.88 841 24.83 24.7 76.4 18 -0.8 30.6
16:40 1012 29.88 841 24.83 24.5 76.1 18 -1 30.2
16:45 1012 29.88 841 24.83 24.4 75.9 18 -1.3 29.7
16:50 1012 29.88 841 24.83 24.4 75.9 20 0.3 32.6
16:55 1012 29.88 841 24.83 24.3 75.8 19 -0.9 30.4
17:00 1012 29.88 841 24.83 24.1 75.4 17 -1.9 28.6
17:05 1012 29.88 841 24.83 23.9 75 20 -0.1 31.9
17:10 1012 29.88 841 24.83 23.5 74.2 21 -0.2 31.6
17:15 1012 29.88 841 24.83 23.2 73.8 20 -0.7 30.8
17:20 1012 29.88 841 24.83 23.5 74.2 18 -1.7 28.9
17:25 1012 29.88 841 24.83 23.1 73.6 22 0.3 32.6
17:30 1012 29.88 841 24.83 22.6 72.6 23 0.7 33.3
17:35 1012 29.88 841 24.83 22.2 71.9 24 0.9 33.6
17:40 1012 29.88 841 24.83 22.3 72.2 25 1.4 34.5
17:45 1012 29.88 841 24.83 22.3 72.1 24 1.1 33.9
17:50 1012 29.88 841 24.83 22.2 71.9 24 0.9 33.6
17:55 1012 29.88 841 24.83 22.1 71.8 26 1.7 35.1
18:00 1012 29.88 841 24.83 22 71.5 27 2.4 36.3
18:05 1012 29.88 841 24.83 22.1 71.7 25 1.2 34.2
18:10 1011 29.85 841 24.83 22.5 72.4 22 -0.2 31.7
18:15 1011 29.85 841 24.83 22.6 72.8 24 1.5 34.6
18:20 1011 29.85 840 24.81 22.5 72.4 24 0.8 33.5
18:25 1011 29.85 840 24.81 22.2 72 25 1.5 34.6
18:30 1011 29.85 840 24.81 22 71.6 27 2.1 35.8
18:35 1011 29.85 840 24.81 21.9 71.5 26 1.8 35.3
18:40 1011 29.85 840 24.81 21.8 71.2 25 0.9 33.6
18:45 1011 29.85 840 24.81 21.8 71.3 24 0.6 33.1
18:50 1011 29.85 840 24.81 21.6 70.9 25 1 33.8
18:55 1011 29.85 840 24.81 21.3 70.4 26 1.3 34.3
19:00 1011 29.85 840 24.81 21.5 70.8 26 1.3 34.3
19:05 1011 29.85 840 24.81 21.5 70.7 25 1 33.7
19:10 1011 29.85 840 24.81 22 71.6 22 -0.4 31.2
19:15 1011 29.85 840 24.81 22.1 71.7 22 -0.2 31.6
19:20 1011 29.85 840 24.81 22 71.5 24 0.4 32.7
19:25 1011 29.85 840 24.81 21.4 70.4 26 1.4 34.6
19:30 1011 29.85 840 24.81 21 69.7 27 1.4 34.5
19:35 1011 29.85 840 24.81 20.9 69.7 27 1.4 34.6
19:40 1011 29.85 841 24.83 20.8 69.4 26 0.5 33
19:45 1011 29.85 841 24.83 21.1 70 25 0.3 32.6
19:50 1011 29.85 841 24.83 21 69.9 24 -0.2 31.7
19:55 1012 29.88 841 24.83 21 69.8 24 -0.1 31.8
20:00 1012 29.88 841 24.83 20.8 69.4 25 0.2 32.4
20:05 1012 29.88 841 24.83 20.7 69.3 25 0.2 32.3
20:10 1012 29.88 841 24.83 20.7 69.2 26 0.6 33.1
20:15 1012 29.88 841 24.83 20.5 68.9 26 0.4 32.8
20:20 1012 29.88 841 24.83 20.6 69 26 0.8 33.4
20:25 1012 29.88 841 24.83 20.5 68.8 26 0.7 33.3
20:30 1012 29.88 841 24.83 20.3 68.6 27 0.8 33.5
20:35 1012 29.88 841 24.83 20.1 68.1 27 0.8 33.4
20:40 1012 29.88 841 24.83 20 68 27 0.7 33.3
20:45 1012 29.88 841 24.83 20 68 27 0.8 33.4
20:50 1012 29.88 841 24.83 20 68 26 -0 32
20:55 1012 29.88 841 24.83 20.3 68.5 24 -0.7 30.7
21:00 1012 29.88 842 24.86 20.3 68.5 26 0.2 32.4
21:05 1012 29.88 842 24.86 20 68.1 26 0.1 32.2
21:10 1013 29.91 842 24.86 20.1 68.2 27 0.5 32.8
21:15 1013 29.91 842 24.86 20.1 68.1 27 0.7 33.3
21:20 1013 29.91 842 24.86 20 68 29 1.5 34.7
21:25 1013 29.91 842 24.86 19.6 67.3 30 1.8 35.2
21:30 1013 29.91 842 24.86 19.5 67.1 31 2.2 36
21:35 1013 29.91 842 24.86 19.4 66.9 31 2.2 35.9
21:40 1013 29.91 842 24.86 19.3 66.8 32 2.2 36
21:45 1013 29.91 842 24.86 19.3 66.7 32 2.3 36.2
21:50 1013 29.91 842 24.86 19.2 66.6 32 2.4 36.3
21:55 1013 29.91 842 24.86 19.1 66.4 33 2.4 36.4
22:00 1013 29.91 843 24.89 18.8 65.8 33 2.5 36.6
22:05 1013 29.91 843 24.89 18.6 65.5 34 2.4 36.4
22:10 1013 29.91 843 24.89 18.5 65.4 34 2.6 36.6
22:15 1014 29.94 843 24.89 18.3 65 35 2.7 36.8
22:20 1014 29.94 843 24.89 18.1 64.6 35 2.4 36.2
22:25 1014 29.94 843 24.89 18.2 64.7 35 2.4 36.3
22:30 1014 29.94 843 24.89 18.2 64.7 34 2.3 36.1
22:35 1014 29.94 843 24.89 18 64.5 35 2.4 36.2
22:40 1014 29.94 843 24.89 17.9 64.2 35 2.5 36.5
22:45 1014 29.94 843 24.89 17.7 63.9 36 2.4 36.4
22:50 1014 29.94 843 24.89 17.6 63.6 37 2.7 36.8
22:55 1014 29.94 843 24.89 17.4 63.4 37 2.6 36.7
23:00 1014 29.94 843 24.89 17.3 63.2 37 2.6 36.7
23:05 1014 29.94 843 24.89 17.1 62.8 41 3.8 38.8
23:10 1014 29.94 843 24.89 16.9 62.4 39 3 37.5
23:15 1014 29.94 843 24.89 16.6 61.9 40 3 37.4
23:20 1014 29.94 843 24.89 16.3 61.4 41 3 37.4
23:25 1014 29.94 844 24.92 16.2 61.2 41 3 37.5
23:30 1014 29.94 844 24.92 16.1 61 41 2.9 37.3
23:35 1014 29.94 844 24.92 16 60.8 41 2.7 36.9
23:40 1015 29.97 844 24.92 16 60.8 42 3.1 37.5
23:45 1015 29.97 844 24.92 15.9 60.6 40 2.5 36.5
23:50 1015 29.97 844 24.92 15.8 60.5 41 2.6 36.6
23:55 1015 29.97 844 24.92 15.7 60.3 41 2.4 36.4
24:00 1015 29.97 844 24.92 15.8 60.4 41 2.6 36.7